Time;durP1;ratioP1;P1;durP2;ratioP2;P2;SDS_P1;SDS_P2;PMS_P1;PMS_P2;Temp;Humidity;BMP_temperature;BMP_pressure;BME280_temperature;BME280_humidity;BME280_pressure;Samples;Min_cycle;Max_cycle;Signal;HPM_P1;HPM_P2
2021/09/07 00:01:19;;;;;;;19.20;12.20;;;;;;;6.78;74.11;100809.67;115309;1205;137956;-62
2021/09/07 00:03:48;;;;;;;22.60;11.90;;;;;;;6.77;74.08;100812.23;115528;1205;23476;-61
2021/09/07 00:06:17;;;;;;;23.80;13.30;;;;;;;6.74;74.32;100809.17;115405;1206;24393;-61
2021/09/07 00:08:45;;;;;;;24.80;11.60;;;;;;;6.73;74.18;100811.29;115291;1205;137681;-61
2021/09/07 00:11:29;;;;;;;20.80;10.90;;;;;;;6.72;74.31;100811.41;115528;1205;22235;-62
2021/09/07 00:14:00;;;;;;;21.60;12.20;;;;;;;6.70;74.34;100811.65;115350;1201;137860;-61
2021/09/07 00:16:28;;;;;;;20.20;11.60;;;;;;;6.68;74.27;100810.09;115467;1205;22371;-62
2021/09/07 00:18:57;;;;;;;22.20;10.90;;;;;;;6.67;74.46;100812.24;115438;1205;22277;-62
2021/09/07 00:21:36;;;;;;;19.40;11.30;;;;;;;6.65;74.34;100817.95;115331;1204;137647;-62
2021/09/07 00:24:05;;;;;;;22.40;11.70;;;;;;;6.61;74.37;100814.77;115526;1209;23169;-62
2021/09/07 00:26:33;;;;;;;22.40;11.70;;;;;;;6.60;74.49;100811.48;115360;1201;138351;-63
2021/09/07 00:29:01;;;;;;;19.70;11.80;;;;;;;6.59;74.24;100816.31;115455;1204;22420;-62
2021/09/07 00:31:30;;;;;;;23.20;12.80;;;;;;;6.57;74.60;100810.83;115407;1202;138146;-62
2021/09/07 00:33:58;;;;;;;22.70;12.80;;;;;;;6.57;74.69;100813.30;115421;1205;23097;-62
2021/09/07 00:36:26;;;;;;;23.40;12.80;;;;;;;6.56;74.44;100809.73;115445;1204;22359;-62
2021/09/07 00:38:54;;;;;;;19.10;12.60;;;;;;;6.56;74.76;100816.48;115371;1201;138431;-62
2021/09/07 00:41:22;;;;;;;24.30;13.20;;;;;;;6.55;74.46;100819.69;115482;1204;22236;-62
2021/09/07 00:43:51;;;;;;;21.50;12.00;;;;;;;6.54;74.62;100814.52;115384;1202;138828;-62
2021/09/07 00:46:19;;;;;;;26.10;12.30;;;;;;;6.52;74.59;100816.91;115455;1205;22322;-62
2021/09/07 00:48:47;;;;;;;20.90;12.00;;;;;;;6.48;74.48;100817.48;115471;1212;23054;-62
2021/09/07 00:51:15;;;;;;;19.30;11.70;;;;;;;6.47;74.52;100821.50;115353;1202;138724;-62
2021/09/07 00:53:43;;;;;;;20.40;12.90;;;;;;;6.47;74.71;100815.83;115444;1207;22257;-62
2021/09/07 00:56:11;;;;;;;20.80;12.20;;;;;;;6.46;74.73;100813.77;115232;1206;138970;-62
2021/09/07 00:58:40;;;;;;;19.30;11.60;;;;;;;6.45;74.79;100816.23;115306;1207;23305;-62
2021/09/07 01:01:09;;;;;;;21.90;11.90;;;;;;;6.44;74.66;100814.01;115384;1208;22313;-62
2021/09/07 01:03:39;;;;;;;19.50;11.30;;;;;;;6.42;74.37;100809.24;115339;1204;137581;-62
2021/09/07 01:06:08;;;;;;;25.80;11.60;;;;;;;6.39;74.28;100810.14;115414;1204;22409;-62
2021/09/07 01:08:36;;;;;;;20.20;11.70;;;;;;;6.36;74.59;100806.16;115301;1202;138101;-62
2021/09/07 01:11:05;;;;;;;23.10;12.40;;;;;;;6.34;74.85;100809.30;115475;1205;22221;-62
2021/09/07 01:13:35;;;;;;;22.60;12.40;;;;;;;6.33;74.57;100807.54;115326;1202;138844;-62
2021/09/07 01:16:03;;;;;;;22.70;12.70;;;;;;;6.32;74.68;100806.77;115482;1209;22287;-62
2021/09/07 01:18:32;;;;;;;22.50;13.70;;;;;;;6.31;74.69;100806.65;115480;1205;23336;-62
2021/09/07 01:21:01;;;;;;;22.30;11.80;;;;;;;6.30;75.03;100807.18;115341;1205;138219;-62
2021/09/07 01:23:29;;;;;;;25.90;12.20;;;;;;;6.29;75.00;100809.13;115497;1205;22237;-62
2021/09/07 01:25:58;;;;;;;23.30;12.30;;;;;;;6.29;75.01;100811.75;115318;1201;138410;-61
2021/09/07 01:28:27;;;;;;;21.60;12.00;;;;;;;6.26;75.10;100809.61;115443;1209;22395;-61
2021/09/07 01:30:55;;;;;;;20.80;11.20;;;;;;;6.27;74.94;100814.06;115460;1204;22315;-61
2021/09/07 01:33:23;;;;;;;20.80;11.80;;;;;;;6.26;74.77;100813.60;115376;1206;138147;-61
2021/09/07 01:36:08;;;;;;;22.20;12.30;;;;;;;6.25;74.65;100812.00;113710;1208;25187;-61
2021/09/07 01:38:36;;;;;;;21.70;11.40;;;;;;;6.23;75.10;100813.66;111075;1201;137838;-62
2021/09/07 01:41:04;;;;;;;22.20;11.90;;;;;;;6.21;75.08;100814.64;115315;1205;23602;-62
2021/09/07 01:43:32;;;;;;;21.40;11.70;;;;;;;6.19;74.88;100813.31;115341;1201;138738;-62
2021/09/07 01:46:00;;;;;;;19.50;11.90;;;;;;;6.18;75.07;100810.56;115403;1209;22349;-62
2021/09/07 01:48:29;;;;;;;23.00;12.00;;;;;;;6.15;74.99;100808.75;115329;1208;22405;-62
2021/09/07 01:50:57;;;;;;;22.10;10.90;;;;;;;6.13;74.94;100805.40;115404;1205;138337;-62
2021/09/07 01:53:25;;;;;;;28.20;11.80;;;;;;;6.12;75.51;100804.67;115418;1209;22308;-62
2021/09/07 01:55:54;;;;;;;19.90;10.80;;;;;;;6.11;75.34;100802.59;115355;1201;138466;-62
2021/09/07 01:58:23;;;;;;;22.20;11.70;;;;;;;6.11;75.28;100804.72;115446;1205;22324;-62
2021/09/07 02:00:52;;;;;;;23.50;11.90;;;;;;;6.09;75.10;100806.08;115467;1212;22324;-62
2021/09/07 02:03:21;;;;;;;22.80;10.80;;;;;;;6.08;75.10;100804.27;115352;1202;139523;-62
2021/09/07 02:05:50;;;;;;;22.20;11.00;;;;;;;6.06;74.97;100805.85;115384;1205;22226;-62
2021/09/07 02:08:18;;;;;;;23.30;11.30;;;;;;;6.04;75.18;100806.39;115301;1205;138024;-62
2021/09/07 02:10:47;;;;;;;19.20;11.60;;;;;;;6.02;75.17;100811.08;115422;1209;22313;-62
2021/09/07 02:13:17;;;;;;;19.00;10.20;;;;;;;6.00;75.30;100808.68;115313;1201;138208;-63
2021/09/07 02:15:45;;;;;;;18.90;10.60;;;;;;;5.99;75.52;100812.95;115374;1208;23061;-62
2021/09/07 02:18:13;;;;;;;22.40;11.50;;;;;;;5.99;75.27;100817.16;115409;1205;22309;-62
2021/09/07 02:20:42;;;;;;;21.90;11.50;;;;;;;5.97;75.59;100815.36;115365;1201;138043;-62
2021/09/07 02:23:10;;;;;;;20.40;11.40;;;;;;;5.96;75.49;100815.52;115444;1205;22313;-61
2021/09/07 02:25:39;;;;;;;22.40;10.90;;;;;;;5.96;75.26;100812.09;115318;1202;138255;-61
2021/09/07 02:28:11;;;;;;;24.00;11.00;;;;;;;5.94;75.55;100809.83;115478;1208;22295;-61
2021/09/07 02:30:39;;;;;;;24.10;10.70;;;;;;;5.92;75.54;100810.23;115448;1212;22786;-61
2021/09/07 02:33:08;;;;;;;30.30;12.10;;;;;;;5.92;75.55;100807.57;115310;1201;139065;-61
2021/09/07 02:35:36;;;;;;;34.40;11.70;;;;;;;5.91;75.71;100810.32;115530;1205;22234;-59
2021/09/07 02:38:06;;;;;;;22.20;10.90;;;;;;;5.90;75.70;100809.48;115271;1205;138361;-59
2021/09/07 02:40:34;;;;;;;23.70;11.40;;;;;;;5.89;75.68;100809.97;115442;1204;23059;-59
2021/09/07 02:43:03;;;;;;;19.20;10.40;;;;;;;5.88;75.54;100814.77;115454;1205;22960;-59
2021/09/07 02:45:31;;;;;;;23.50;9.40;;;;;;;5.86;75.70;100814.79;115376;1205;138349;-59
2021/09/07 02:48:02;;;;;;;18.60;11.60;;;;;;;5.84;75.83;100817.59;115480;1205;22321;-59
2021/09/07 02:50:31;;;;;;;16.80;10.20;;;;;;;5.81;75.77;100816.39;115334;1202;137852;-59
2021/09/07 02:53:01;;;;;;;27.20;11.90;;;;;;;5.80;75.83;100820.08;115442;1205;22337;-59
2021/09/07 02:55:29;;;;;;;20.10;9.60;;;;;;;5.78;76.00;100820.31;115358;1202;139089;-59
2021/09/07 02:57:57;;;;;;;21.80;10.70;;;;;;;5.76;75.99;100820.48;115456;1208;22317;-59
2021/09/07 03:00:26;;;;;;;28.10;12.20;;;;;;;5.75;76.06;100819.64;115520;1209;22876;-59
2021/09/07 03:02:56;;;;;;;18.60;11.90;;;;;;;5.76;76.03;100821.52;115368;1201;139126;-59
2021/09/07 03:05:26;;;;;;;21.30;10.30;;;;;;;5.76;75.85;100819.36;115419;1205;23975;-60
2021/09/07 03:07:54;;;;;;;16.40;10.60;;;;;;;5.77;76.20;100823.06;115351;1201;138284;-60
2021/09/07 03:10:22;;;;;;;16.60;10.00;;;;;;;5.77;75.85;100819.11;115394;1205;24245;-60
2021/09/07 03:13:12;;;;;;;24.60;10.90;;;;;;;5.77;75.75;100820.86;115447;1205;23014;-60
2021/09/07 03:15:41;;;;;;;18.90;10.50;;;;;;;5.76;76.11;100823.61;115398;1206;138136;-60
2021/09/07 03:18:10;;;;;;;18.20;9.90;;;;;;;5.77;76.06;100821.28;115447;1205;23442;-60
2021/09/07 03:20:58;;;;;;;17.10;9.40;;;;;;;5.77;76.28;100823.55;115382;1201;137917;-60
2021/09/07 03:23:45;;;;;;;18.10;10.20;;;;;;;5.77;76.12;100825.67;115516;1209;23180;-59
2021/09/07 03:26:15;;;;;;;21.10;10.50;;;;;;;5.78;76.07;100829.05;115293;1201;138942;-59
2021/09/07 03:28:44;;;;;;;19.90;9.60;;;;;;;5.78;76.40;100831.21;115395;1205;22306;-59
2021/09/07 03:31:12;;;;;;;23.90;11.00;;;;;;;5.78;76.46;100828.80;115460;1204;23423;-59
2021/09/07 03:33:41;;;;;;;17.00;9.90;;;;;;;5.79;76.19;100826.30;115362;1202;138291;-59
2021/09/07 03:36:09;;;;;;;26.20;10.70;;;;;;;5.80;76.26;100826.37;115506;1206;22353;-59
2021/09/07 03:38:37;;;;;;;26.00;10.20;;;;;;;5.81;76.50;100826.63;115312;1206;138399;-60
2021/09/07 03:41:06;;;;;;;23.70;11.00;;;;;;;5.81;76.40;100828.38;115451;1209;22306;-60
2021/09/07 03:43:35;;;;;;;16.20;10.10;;;;;;;5.81;76.34;100823.52;115396;1202;139164;-60
2021/09/07 03:46:04;;;;;;;19.80;9.90;;;;;;;5.81;76.61;100822.98;115453;1205;22284;-60
2021/09/07 03:48:35;;;;;;;14.90;9.10;;;;;;;5.86;76.62;100824.27;115481;1205;23117;-60
2021/09/07 03:51:04;;;;;;;19.40;10.00;;;;;;;5.88;76.80;100820.65;115361;1201;138376;-60
2021/09/07 03:53:36;;;;;;;18.50;9.10;;;;;;;5.92;76.90;100819.44;115460;1206;22791;-60
2021/09/07 03:56:06;;;;;;;21.60;10.70;;;;;;;5.97;77.04;100816.64;115383;1201;137854;-60
2021/09/07 03:58:34;;;;;;;16.40;8.80;;;;;;;6.02;77.18;100817.64;115419;1205;22294;-60
2021/09/07 04:01:03;;;;;;;20.90;11.00;;;;;;;6.08;77.56;100826.91;115477;1204;22396;-60
2021/09/07 04:03:31;;;;;;;17.90;8.80;;;;;;;6.15;77.34;100822.73;115394;1201;138009;-60
2021/09/07 04:06:03;;;;;;;17.60;9.50;;;;;;;6.21;77.78;100823.06;115392;1206;22318;-60
2021/09/07 04:08:32;;;;;;;15.50;10.10;;;;;;;6.29;77.87;100823.74;115314;1205;137958;-60
2021/09/07 04:11:01;;;;;;;19.50;10.40;;;;;;;6.38;77.80;100827.75;115479;1205;22298;-60
2021/09/07 04:13:34;;;;;;;21.90;9.60;;;;;;;6.49;78.19;100828.29;115347;1201;138265;-60
2021/09/07 04:16:03;;;;;;;19.50;10.20;;;;;;;6.62;78.19;100827.15;115474;1205;22310;-60
2021/09/07 04:18:31;;;;;;;20.10;8.60;;;;;;;6.78;78.25;100832.19;115425;1205;22325;-60
2021/09/07 04:20:59;;;;;;;23.00;10.00;;;;;;;6.97;78.42;100825.61;115314;1201;138004;-60
2021/09/07 04:23:28;;;;;;;22.10;9.90;;;;;;;7.20;78.47;100829.42;115511;1212;22245;-61
2021/09/07 04:25:58;;;;;;;24.60;10.20;;;;;;;7.38;78.25;100829.31;115325;1205;138106;-60
2021/09/07 04:28:26;;;;;;;30.20;11.30;;;;;;;7.57;77.78;100823.13;115442;1209;22351;-61
2021/09/07 04:30:54;;;;;;;48.30;12.80;;;;;;;7.79;77.40;100827.45;115431;1205;22248;-60
2021/09/07 04:33:22;;;;;;;29.20;11.10;;;;;;;8.09;76.91;100826.44;115318;1201;137981;-60
2021/09/07 04:35:50;;;;;;;37.10;13.20;;;;;;;8.51;75.99;100823.27;115486;1205;23405;-62
2021/09/07 04:38:18;;;;;;;21.50;11.70;;;;;;;8.89;74.45;100823.98;115389;1205;137464;-62
2021/09/07 04:40:46;;;;;;;22.80;12.60;;;;;;;9.20;72.98;100816.53;115461;1205;23006;-60
2021/09/07 04:43:14;;;;;;;34.80;14.20;;;;;;;9.48;71.93;100818.37;115463;1205;22428;-60
2021/09/07 04:45:43;;;;;;;29.30;12.20;;;;;;;9.74;70.90;100815.73;115348;1201;137141;-60
2021/09/07 04:48:11;;;;;;;28.80;12.20;;;;;;;9.92;69.87;100817.54;115438;1212;22410;-60
2021/09/07 04:50:41;;;;;;;32.50;14.50;;;;;;;10.09;69.10;100815.93;115268;1201;137796;-60
2021/09/07 04:53:09;;;;;;;43.00;13.90;;;;;;;10.25;68.42;100813.52;115429;1205;22329;-60
2021/09/07 04:55:37;;;;;;;43.70;14.50;;;;;;;10.40;67.51;100815.22;115445;1201;137903;-60
2021/09/07 04:58:06;;;;;;;37.30;14.60;;;;;;;10.52;66.95;100814.30;115392;1212;22309;-60
2021/09/07 05:00:34;;;;;;;33.20;14.10;;;;;;;10.65;66.37;100818.09;115485;1205;22246;-59
2021/09/07 05:03:02;;;;;;;38.10;15.60;;;;;;;10.76;65.77;100820.32;115374;1203;137474;-60
2021/09/07 05:05:31;;;;;;;34.60;13.80;;;;;;;10.86;65.56;100820.23;115472;1205;22308;-60
2021/09/07 05:07:59;;;;;;;31.70;13.90;;;;;;;10.98;65.32;100815.02;115334;1205;139388;-59
2021/09/07 05:10:27;;;;;;;34.10;13.10;;;;;;;11.07;65.03;100817.79;115459;1205;22225;-59
2021/09/07 05:12:55;;;;;;;33.30;11.70;;;;;;;11.19;65.03;100818.52;115433;1205;22305;-60
2021/09/07 05:15:23;;;;;;;26.20;11.00;;;;;;;11.33;64.55;100815.39;115450;1201;137531;-60
2021/09/07 05:17:52;;;;;;;24.60;11.00;;;;;;;11.49;64.14;100820.86;115445;1205;22324;-60
2021/09/07 05:20:20;;;;;;;27.20;9.80;;;;;;;11.66;63.57;100818.80;115389;1206;137646;-60
2021/09/07 05:22:48;;;;;;;31.90;10.30;;;;;;;11.82;63.22;100817.42;115476;1212;22238;-60
2021/09/07 05:25:16;;;;;;;33.20;10.40;;;;;;;11.96;63.21;100824.67;115420;1205;22243;-60
2021/09/07 05:27:45;;;;;;;29.30;9.20;;;;;;;12.09;62.70;100824.78;115371;1202;138853;-59
2021/09/07 05:30:13;;;;;;;26.40;10.30;;;;;;;12.18;62.09;100822.44;115361;1205;23062;-61
2021/09/07 05:32:41;;;;;;;22.40;9.60;;;;;;;12.27;61.51;100824.77;115314;1201;137871;-61
2021/09/07 05:35:09;;;;;;;23.60;9.50;;;;;;;12.30;61.33;100823.20;115501;1204;22324;-59
2021/09/07 05:37:39;;;;;;;24.00;9.30;;;;;;;12.37;60.97;100832.72;115311;1203;137516;-61
2021/09/07 05:40:09;;;;;;;20.10;8.30;;;;;;;12.40;60.72;100832.77;115429;1207;23049;-60
2021/09/07 05:42:41;;;;;;;18.70;8.10;;;;;;;12.43;60.37;100832.79;115372;1212;22464;-62
2021/09/07 05:45:14;;;;;;;28.10;8.60;;;;;;;12.47;60.05;100834.25;115280;1201;137558;-59
2021/09/07 05:47:43;;;;;;;21.20;8.70;;;;;;;12.51;59.86;100835.02;115509;1205;22251;-59
2021/09/07 05:50:13;;;;;;;22.90;7.60;;;;;;;12.57;59.79;100835.39;115290;1201;137813;-59
2021/09/07 05:52:42;;;;;;;25.70;8.70;;;;;;;12.61;59.36;100836.66;115406;1205;22295;-59
2021/09/07 05:55:11;;;;;;;21.50;7.40;;;;;;;12.66;59.05;100836.71;115477;1209;22354;-60
2021/09/07 05:57:39;;;;;;;20.20;8.10;;;;;;;12.68;58.87;100838.13;115337;1202;137512;-60
2021/09/07 06:00:10;;;;;;;21.40;9.00;;;;;;;12.73;58.79;100843.20;115310;1205;22460;-60
2021/09/07 06:02:49;;;;;;;28.00;9.70;;;;;;;12.80;58.77;100846.80;115330;1202;137795;-60
2021/09/07 06:05:17;;;;;;;16.30;7.80;;;;;;;12.86;58.85;100849.99;115452;1205;22424;-60
2021/09/07 06:07:45;;;;;;;24.80;7.10;;;;;;;12.90;58.73;100850.20;115347;1201;137534;-60
2021/09/07 06:10:14;;;;;;;16.20;6.30;;;;;;;12.96;58.51;100853.45;115357;1205;22325;-60
2021/09/07 06:12:43;;;;;;;16.30;6.50;;;;;;;13.03;58.45;100854.90;115429;1205;23149;-59
2021/09/07 06:15:12;;;;;;;17.80;5.90;;;;;;;13.12;57.99;100856.42;115291;1201;139327;-60
2021/09/07 06:17:40;;;;;;;17.30;5.70;;;;;;;13.20;57.58;100857.96;115417;1204;22825;-60
2021/09/07 06:20:09;;;;;;;18.40;6.50;;;;;;;13.28;57.06;100860.27;115389;1202;137488;-61
2021/09/07 06:22:38;;;;;;;63.30;8.60;;;;;;;13.36;56.60;100857.42;115398;1209;22327;-61
2021/09/07 06:25:07;;;;;;;25.10;7.40;;;;;;;13.43;56.10;100856.02;115425;1204;22370;-60
2021/09/07 06:27:37;;;;;;;19.40;5.70;;;;;;;13.48;56.13;100856.88;115351;1202;138038;-60
2021/09/07 06:30:06;;;;;;;38.30;7.80;;;;;;;13.53;55.95;100857.48;115405;1205;22296;-60
2021/09/07 06:32:35;;;;;;;18.10;6.00;;;;;;;13.58;55.73;100856.45;115322;1201;137393;-60
2021/09/07 06:35:03;;;;;;;22.60;6.40;;;;;;;13.63;55.72;100857.66;115439;1204;22292;-59
2021/09/07 06:37:32;;;;;;;14.60;5.70;;;;;;;13.69;55.68;100855.10;115360;1201;138170;-60
2021/09/07 06:40:00;;;;;;;20.90;6.00;;;;;;;13.77;55.63;100859.46;115462;1205;22300;-59
2021/09/07 06:42:28;;;;;;;12.00;5.90;;;;;;;13.85;55.49;100864.48;115438;1211;23716;-59
2021/09/07 06:45:04;;;;;;;15.10;5.90;;;;;;;13.93;55.22;100865.29;115269;1201;137297;-60
2021/09/07 06:47:32;;;;;;;17.70;6.80;;;;;;;14.01;55.28;100864.64;115476;1212;22349;-59
2021/09/07 06:50:02;;;;;;;11.80;5.20;;;;;;;14.08;55.29;100865.60;115289;1202;137692;-60
2021/09/07 06:52:31;;;;;;;13.30;5.50;;;;;;;14.14;54.61;100866.84;115485;1205;26285;-61
2021/09/07 06:55:19;;;;;;;13.80;5.70;;;;;;;14.21;54.18;100869.59;115450;1204;22334;-59
2021/09/07 06:57:47;;;;;;;16.50;5.10;;;;;;;14.25;53.98;100874.72;115301;1203;137342;-61
2021/09/07 07:00:15;;;;;;;14.40;5.20;;;;;;;14.30;54.38;100877.25;115478;1204;22312;-61
2021/09/07 07:02:43;;;;;;;14.10;5.10;;;;;;;14.35;54.41;100878.42;115250;1201;137617;-61
2021/09/07 07:05:12;;;;;;;17.00;6.10;;;;;;;14.38;53.51;100878.43;115476;1205;23181;-61
2021/09/07 07:07:40;;;;;;;20.60;6.20;;;;;;;14.40;53.05;100881.39;115387;1203;137472;-61
2021/09/07 10:46:43;;;;;;;5.20;2.30;;;;;;;17.68;44.43;100821.62;109779;1221;558015;-59
2021/09/07 10:49:14;;;;;;;6.90;2.60;;;;;;;17.85;43.84;100814.65;115323;1207;22817;-60
2021/09/07 10:52:20;;;;;;;4.30;2.20;;;;;;;17.91;43.14;100814.59;115428;1206;22332;-60
2021/09/07 10:54:52;;;;;;;8.50;3.20;;;;;;;17.95;43.35;100813.28;115021;1213;22256;-60
2021/09/07 10:57:35;;;;;;;8.10;2.90;;;;;;;17.98;42.50;100809.09;115049;1211;22398;-60
2021/09/07 11:00:18;;;;;;;5.50;2.60;;;;;;;17.99;42.63;100812.35;115005;1211;22362;-59
2021/09/07 11:02:55;;;;;;;8.30;2.90;;;;;;;18.00;42.85;100815.27;115041;1212;22248;-60
2021/09/07 11:05:27;;;;;;;6.50;2.80;;;;;;;18.03;42.80;100813.95;115006;1210;23908;-61
2021/09/07 11:08:01;;;;;;;5.00;2.30;;;;;;;18.04;42.33;100807.91;115036;1211;22802;-60
2021/09/07 11:10:39;;;;;;;9.90;2.50;;;;;;;18.06;42.43;100803.61;115014;1211;22328;-64
2021/09/07 11:13:09;;;;;;;8.50;2.80;;;;;;;18.07;42.57;100799.92;114976;1211;22397;-64
2021/09/07 11:15:43;;;;;;;4.80;2.50;;;;;;;18.12;42.57;100798.55;115009;1210;22195;-65
2021/09/07 11:18:13;;;;;;;5.40;2.80;;;;;;;18.14;42.01;100801.92;115019;1212;22348;-64
2021/09/07 11:20:48;;;;;;;4.70;2.60;;;;;;;18.16;41.50;100796.02;115089;1213;22587;-64
2021/09/07 11:23:17;;;;;;;11.30;2.50;;;;;;;18.16;41.72;100793.04;114986;1211;22422;-64
2021/09/07 11:25:47;;;;;;;4.70;2.90;;;;;;;18.17;42.28;100793.92;115021;1212;22464;-64
2021/09/07 11:28:17;;;;;;;5.30;2.80;;;;;;;18.20;42.11;100799.02;115055;1212;22332;-64
2021/09/07 11:30:51;;;;;;;7.20;2.40;;;;;;;18.24;41.95;100795.06;115201;1213;23030;-64
2021/09/07 11:33:19;;;;;;;15.90;2.70;;;;;;;18.29;41.60;100795.89;115363;1206;22302;-64
2021/09/07 11:35:56;;;;;;;13.70;3.90;;;;;;;18.30;41.60;100789.77;115393;1207;22710;-64
2021/09/07 11:38:25;;;;;;;9.80;2.80;;;;;;;18.29;41.46;100788.71;115334;1214;22315;-64
2021/09/07 11:40:55;;;;;;;5.50;2.60;;;;;;;18.25;41.32;100787.27;115316;1207;22350;-63
2021/09/07 11:43:48;;;;;;;10.90;3.10;;;;;;;18.21;40.89;100780.33;115385;1214;22294;-64
2021/09/07 11:46:23;;;;;;;9.00;2.90;;;;;;;18.17;41.76;100778.86;113348;1207;22437;-63
2021/09/07 11:48:55;;;;;;;10.50;3.40;;;;;;;18.17;42.22;100774.39;115250;1207;23017;-64
2021/09/07 11:51:27;;;;;;;5.50;3.10;;;;;;;18.21;42.65;100778.06;115382;1207;22168;-64
2021/09/07 11:53:58;;;;;;;5.90;2.80;;;;;;;18.23;42.48;100776.23;115361;1201;23112;-64
2021/09/07 11:56:31;;;;;;;14.70;3.30;;;;;;;18.23;41.96;100771.49;115383;1214;22377;-64
2021/09/07 11:59:12;;;;;;;5.10;2.90;;;;;;;18.21;41.95;100772.21;115450;1207;22327;-64
2021/09/07 12:01:58;;;;;;;5.50;2.70;;;;;;;18.16;41.56;100767.44;115500;1207;23126;-64
2021/09/07 12:04:57;;;;;;;3.80;2.40;;;;;;;18.11;41.25;100765.06;115498;1207;22808;-64
2021/09/07 12:07:53;;;;;;;6.50;2.70;;;;;;;18.06;41.28;100762.13;115401;1210;22295;-64
2021/09/07 12:10:54;;;;;;;6.70;2.90;;;;;;;18.00;41.96;100755.38;115436;1211;23370;-63
2021/09/07 12:13:43;;;;;;;6.90;2.90;;;;;;;17.96;42.05;100750.62;115438;1209;22362;-63
2021/09/07 12:16:34;;;;;;;7.30;3.20;;;;;;;17.92;42.42;100745.82;113053;1215;25407;-63
2021/09/07 12:19:35;;;;;;;7.60;3.40;;;;;;;17.93;42.81;100743.55;115476;1208;22221;-63
2021/09/07 12:22:27;;;;;;;13.40;4.60;;;;;;;17.96;43.05;100742.08;115495;1215;23044;-63
2021/09/07 12:25:17;;;;;;;7.30;3.10;;;;;;;18.01;43.70;100740.09;115651;1207;22285;-64
2021/09/07 12:28:07;;;;;;;4.70;3.10;;;;;;;18.08;44.14;100740.58;115596;1212;24143;-64
2021/09/07 12:31:13;;;;;;;5.60;2.70;;;;;;;18.14;43.34;100739.08;115510;1207;22133;-64
2021/09/07 12:34:01;;;;;;;4.80;2.80;;;;;;;18.19;42.80;100736.95;115637;1206;22337;-64
2021/09/07 12:36:51;;;;;;;5.90;2.50;;;;;;;18.24;42.49;100730.72;115622;1205;22275;-64
2021/09/07 12:39:39;;;;;;;6.20;3.40;;;;;;;18.31;42.79;100729.16;115623;1208;22285;-65
2021/09/07 12:42:28;;;;;;;4.70;3.00;;;;;;;18.37;42.41;100730.80;115576;1207;22307;-65
2021/09/07 12:44:56;;;;;;;4.70;2.60;;;;;;;18.42;42.89;100734.38;115203;1202;137190;-64
2021/09/07 12:47:24;;;;;;;8.30;3.30;;;;;;;18.44;42.77;100728.64;115533;1205;23061;-65
2021/09/07 12:49:53;;;;;;;4.80;2.70;;;;;;;18.45;42.09;100727.20;115439;1201;137937;-64
2021/09/07 12:52:21;;;;;;;9.00;3.40;;;;;;;18.45;42.17;100721.69;115506;1206;22247;-65
2021/09/07 12:54:50;;;;;;;8.80;3.70;;;;;;;18.43;41.54;100718.10;115543;1205;23134;-64
2021/09/07 12:57:17;;;;;;;5.70;3.80;;;;;;;18.40;41.42;100714.46;115415;1202;137640;-64
2021/09/07 12:59:45;;;;;;;5.30;3.90;;;;;;;18.35;41.63;100710.05;115505;1205;22477;-64
2021/09/07 13:02:13;;;;;;;5.60;3.00;;;;;;;18.30;42.27;100704.41;115377;1201;136989;-64
2021/09/07 13:04:42;;;;;;;12.00;3.20;;;;;;;18.30;42.73;100703.57;115473;1205;22290;-64
2021/09/07 13:07:10;;;;;;;11.10;4.20;;;;;;;18.31;42.86;100706.61;115468;1205;22356;-64
2021/09/07 13:09:40;;;;;;;8.30;3.70;;;;;;;18.34;42.80;100699.89;115391;1201;136907;-64
2021/09/07 13:12:08;;;;;;;6.20;2.90;;;;;;;18.35;42.49;100696.37;115463;1205;22318;-64
2021/09/07 13:14:36;;;;;;;14.40;3.40;;;;;;;18.40;42.63;100696.46;115430;1202;136804;-64
2021/09/07 13:17:04;;;;;;;5.70;2.90;;;;;;;18.42;42.03;100694.54;115430;1205;22306;-64
2021/09/07 13:19:32;;;;;;;8.40;2.80;;;;;;;18.45;42.34;100692.10;115483;1205;22339;-64
2021/09/07 13:22:00;;;;;;;9.30;2.90;;;;;;;18.49;41.99;100691.34;115440;1201;137086;-63
2021/09/07 13:24:28;;;;;;;7.00;2.90;;;;;;;18.50;41.58;100694.93;115475;1209;22961;-64
2021/09/07 13:26:56;;;;;;;8.10;2.70;;;;;;;18.51;41.17;100692.66;115412;1201;137464;-64
2021/09/07 13:29:24;;;;;;;7.00;2.90;;;;;;;18.51;41.38;100687.59;115525;1207;22313;-64
2021/09/07 13:31:52;;;;;;;8.80;3.50;;;;;;;18.52;41.80;100688.14;115406;1205;137129;-64
2021/09/07 13:34:21;;;;;;;6.10;3.90;;;;;;;18.54;41.99;100688.57;115523;1205;22320;-65
2021/09/07 13:36:49;;;;;;;9.20;3.60;;;;;;;18.58;41.53;100681.02;115383;1205;22364;-64
2021/09/07 13:39:17;;;;;;;12.30;3.70;;;;;;;18.59;41.88;100682.08;115269;1204;136961;-65
2021/09/07 13:41:46;;;;;;;5.40;3.30;;;;;;;18.61;41.94;100682.88;115501;1205;22370;-65
2021/09/07 13:44:14;;;;;;;8.00;3.50;;;;;;;18.62;41.31;100680.33;115373;1201;137590;-65
2021/09/07 13:46:42;;;;;;;7.10;2.90;;;;;;;18.63;41.18;100677.85;115556;1205;23066;-65
2021/09/07 13:49:10;;;;;;;8.70;4.20;;;;;;;18.61;40.88;100681.77;115499;1210;22345;-65
2021/09/07 13:51:46;;;;;;;7.40;3.40;;;;;;;18.60;40.80;100682.02;115357;1205;137788;-65
2021/09/07 13:54:15;;;;;;;5.50;3.30;;;;;;;18.60;41.27;100677.33;115473;1212;22347;-65
2021/09/07 13:56:43;;;;;;;9.00;3.80;;;;;;;18.60;41.87;100671.04;115233;1201;137536;-65
2021/09/07 13:59:11;;;;;;;8.40;4.10;;;;;;;18.60;41.89;100669.55;115471;1205;23166;-65
2021/09/07 14:01:39;;;;;;;7.40;3.90;;;;;;;18.59;41.86;100671.65;115350;1203;137987;-64
2021/09/07 14:04:08;;;;;;;8.40;3.60;;;;;;;18.57;41.61;100669.09;115479;1213;22350;-65
2021/09/07 14:06:36;;;;;;;10.70;4.00;;;;;;;18.55;41.68;100670.91;115557;1208;22265;-64
2021/09/07 14:09:04;;;;;;;6.90;3.90;;;;;;;18.52;42.50;100670.63;115321;1204;138622;-65
2021/09/07 14:11:38;;;;;;;14.70;4.40;;;;;;;18.50;41.62;100667.05;115440;1206;22327;-64
2021/09/07 14:14:07;;;;;;;9.80;3.50;;;;;;;18.47;41.34;100665.30;115326;1205;137521;-65
2021/09/07 14:16:35;;;;;;;7.00;3.60;;;;;;;18.45;41.90;100664.89;115440;1205;22303;-65
2021/09/07 14:19:24;;;;;;;6.20;3.90;;;;;;;18.43;42.09;100662.52;115341;1208;23152;-65
2021/09/07 14:22:00;;;;;;;18.20;3.90;;;;;;;18.40;41.55;100658.83;115433;1205;137069;-65
2021/09/07 14:24:29;;;;;;;15.70;3.80;;;;;;;18.36;41.78;100656.79;115451;1205;23315;-65
2021/09/07 14:26:58;;;;;;;13.20;3.60;;;;;;;18.30;41.92;100656.88;115396;1201;137098;-65
2021/09/07 14:29:27;;;;;;;12.40;3.40;;;;;;;18.25;41.95;100659.11;115458;1209;22324;-65
2021/09/07 14:31:55;;;;;;;8.40;3.50;;;;;;;18.20;42.16;100654.86;115424;1201;137809;-65
2021/09/07 14:34:23;;;;;;;9.60;3.40;;;;;;;18.16;42.39;100651.80;115502;1207;22285;-65
2021/09/07 14:36:52;;;;;;;11.90;3.70;;;;;;;18.12;42.63;100652.85;115463;1205;22333;-64
2021/09/07 14:39:20;;;;;;;7.40;3.40;;;;;;;18.05;42.93;100645.64;115350;1201;137335;-65
2021/09/07 14:41:48;;;;;;;7.70;3.90;;;;;;;18.01;42.53;100648.70;115450;1205;22270;-64
2021/09/07 14:44:16;;;;;;;10.20;4.00;;;;;;;17.95;42.62;100648.70;115365;1201;137592;-65
2021/09/07 14:46:45;;;;;;;16.70;3.90;;;;;;;17.92;42.68;100651.57;115579;1205;22332;-65
2021/09/07 14:49:16;;;;;;;24.30;4.40;;;;;;;17.89;42.70;100649.27;115463;1212;22355;-64
2021/09/07 14:51:46;;;;;;;8.10;4.30;;;;;;;17.88;42.77;100647.07;115432;1201;137452;-65
2021/09/07 14:54:14;;;;;;;13.20;4.00;;;;;;;17.86;42.66;100648.34;115502;1209;22309;-65
2021/09/07 14:56:43;;;;;;;10.90;4.00;;;;;;;17.84;42.69;100643.39;115367;1205;137493;-65
2021/09/07 14:59:12;;;;;;;8.80;3.60;;;;;;;17.86;43.17;100648.46;115512;1212;22352;-65
2021/09/07 15:01:43;;;;;;;14.80;4.40;;;;;;;17.85;43.62;100649.29;115442;1201;137131;-64
2021/09/07 15:04:13;;;;;;;15.60;4.60;;;;;;;17.83;43.00;100648.45;115456;1208;23061;-65